Ezpeleta, Argentina
Current Conditions -  °F | °C
As of 11:00 AM on Thursday 18 Dec 2014 (Local Time) from SAEZ Reporting Station
Clear Clear  
Wind Chill: 82°   Ceiling: Unl
Heat Index: 83°   Visibility: 4mi
Dew Point: 63°   Wind: 6mph
Humidity: 51%   Direction: 330°NNW
Pressure: 29.88"   Gusts: NA
Location:  34.77°S, 58.25°W
Report Text: SAEZ 181400Z 33005KT 250V020 7000 NSC 28/17 Q1012
Loading
Personal Weather Stations






























Interactive Weather Map New forecast layout! Learn more

10-Day Weather Forecast

Advertisements
Track Severe Weather on mobile